sensor_id;sensor_type;location;lat;lon;timestamp;P1;durP1;ratioP1;P2;durP2;ratioP2
64738;SDS011;51175;51.186;0.276;2024-03-25T00:00:28;9.40;;;5.82;;
64738;SDS011;51175;51.186;0.276;2024-03-25T00:00:59;13.43;;;5.65;;
64738;SDS011;51175;51.186;0.276;2024-03-25T00:01:30;10.25;;;6.22;;
64738;SDS011;51175;51.186;0.276;2024-03-25T00:02:00;8.55;;;5.95;;
64738;SDS011;51175;51.186;0.276;2024-03-25T00:02:31;8.75;;;5.93;;
64738;SDS011;51175;51.186;0.276;2024-03-25T00:03:01;11.75;;;6.43;;
64738;SDS011;51175;51.186;0.276;2024-03-25T00:03:31;10.88;;;5.05;;
64738;SDS011;51175;51.186;0.276;2024-03-25T00:04:02;12.10;;;5.95;;
64738;SDS011;51175;51.186;0.276;2024-03-25T00:04:32;9.90;;;6.95;;
64738;SDS011;51175;51.186;0.276;2024-03-25T00:05:06;13.18;;;5.88;;
64738;SDS011;51175;51.186;0.276;2024-03-25T00:05:40;10.63;;;5.72;;
64738;SDS011;51175;51.186;0.276;2024-03-25T00:06:11;11.18;;;6.55;;
64738;SDS011;51175;51.186;0.276;2024-03-25T00:06:41;11.80;;;5.75;;
64738;SDS011;51175;51.186;0.276;2024-03-25T00:07:12;9.85;;;6.68;;
64738;SDS011;51175;51.186;0.276;2024-03-25T00:07:43;10.63;;;5.80;;
64738;SDS011;51175;51.186;0.276;2024-03-25T00:08:13;8.88;;;5.57;;
64738;SDS011;51175;51.186;0.276;2024-03-25T00:08:44;9.15;;;5.28;;
64738;SDS011;51175;51.186;0.276;2024-03-25T00:09:17;13.32;;;6.57;;
64738;SDS011;51175;51.186;0.276;2024-03-25T00:09:47;9.07;;;6.22;;
64738;SDS011;51175;51.186;0.276;2024-03-25T00:10:18;7.93;;;5.15;;
64738;SDS011;51175;51.186;0.276;2024-03-25T00:10:50;13.18;;;5.88;;
64738;SDS011;51175;51.186;0.276;2024-03-25T00:11:21;10.70;;;5.78;;
64738;SDS011;51175;51.186;0.276;2024-03-25T00:11:52;12.27;;;6.10;;
64738;SDS011;51175;51.186;0.276;2024-03-25T00:12:25;7.97;;;5.22;;
64738;SDS011;51175;51.186;0.276;2024-03-25T00:12:56;8.05;;;5.57;;
64738;SDS011;51175;51.186;0.276;2024-03-25T00:13:26;10.68;;;5.82;;
64738;SDS011;51175;51.186;0.276;2024-03-25T00:13:57;14.05;;;6.05;;
64738;SDS011;51175;51.186;0.276;2024-03-25T00:14:27;15.23;;;7.95;;
64738;SDS011;51175;51.186;0.276;2024-03-25T00:14:58;9.15;;;6.10;;
64738;SDS011;51175;51.186;0.276;2024-03-25T00:15:28;9.20;;;6.13;;
64738;SDS011;51175;51.186;0.276;2024-03-25T00:15:59;11.70;;;6.28;;
64738;SDS011;51175;51.186;0.276;2024-03-25T00:16:30;9.65;;;5.40;;
64738;SDS011;51175;51.186;0.276;2024-03-25T00:17:00;9.63;;;4.93;;
64738;SDS011;51175;51.186;0.276;2024-03-25T00:17:31;12.95;;;6.70;;
64738;SDS011;51175;51.186;0.276;2024-03-25T00:18:01;11.75;;;6.30;;
64738;SDS011;51175;51.186;0.276;2024-03-25T00:18:32;10.48;;;6.10;;
64738;SDS011;51175;51.186;0.276;2024-03-25T00:19:03;9.13;;;4.90;;
64738;SDS011;51175;51.186;0.276;2024-03-25T00:19:33;8.68;;;5.35;;
64738;SDS011;51175;51.186;0.276;2024-03-25T00:20:04;8.23;;;4.93;;
64738;SDS011;51175;51.186;0.276;2024-03-25T00:20:39;8.30;;;5.22;;
64738;SDS011;51175;51.186;0.276;2024-03-25T00:21:09;9.38;;;5.38;;
64738;SDS011;51175;51.186;0.276;2024-03-25T00:21:40;9.48;;;5.00;;
64738;SDS011;51175;51.186;0.276;2024-03-25T00:22:10;12.52;;;7.18;;
64738;SDS011;51175;51.186;0.276;2024-03-25T00:22:40;11.20;;;6.07;;
64738;SDS011;51175;51.186;0.276;2024-03-25T00:23:11;12.07;;;5.88;;
64738;SDS011;51175;51.186;0.276;2024-03-25T00:23:41;11.25;;;5.95;;
64738;SDS011;51175;51.186;0.276;2024-03-25T00:24:12;10.45;;;5.85;;
64738;SDS011;51175;51.186;0.276;2024-03-25T00:24:42;9.25;;;5.20;;
64738;SDS011;51175;51.186;0.276;2024-03-25T00:25:13;14.85;;;5.95;;
64738;SDS011;51175;51.186;0.276;2024-03-25T00:25:46;11.50;;;5.47;;
64738;SDS011;51175;51.186;0.276;2024-03-25T00:26:17;8.60;;;5.97;;
64738;SDS011;51175;51.186;0.276;2024-03-25T00:26:47;8.63;;;5.00;;
64738;SDS011;51175;51.186;0.276;2024-03-25T00:27:18;12.43;;;5.20;;
64738;SDS011;51175;51.186;0.276;2024-03-25T00:27:48;7.55;;;4.70;;
64738;SDS011;51175;51.186;0.276;2024-03-25T00:28:19;10.25;;;5.93;;
64738;SDS011;51175;51.186;0.276;2024-03-25T00:28:49;8.48;;;5.00;;
64738;SDS011;51175;51.186;0.276;2024-03-25T00:29:20;10.70;;;5.30;;
64738;SDS011;51175;51.186;0.276;2024-03-25T00:29:50;10.02;;;5.32;;
64738;SDS011;51175;51.186;0.276;2024-03-25T00:30:21;9.52;;;6.40;;
64738;SDS011;51175;51.186;0.276;2024-03-25T00:30:51;9.57;;;5.28;;
64738;SDS011;51175;51.186;0.276;2024-03-25T00:31:21;9.13;;;5.68;;
64738;SDS011;51175;51.186;0.276;2024-03-25T00:31:52;8.80;;;5.00;;
64738;SDS011;51175;51.186;0.276;2024-03-25T00:32:22;9.50;;;4.82;;
64738;SDS011;51175;51.186;0.276;2024-03-25T00:32:53;7.93;;;5.38;;
64738;SDS011;51175;51.186;0.276;2024-03-25T00:33:26;8.82;;;5.20;;
64738;SDS011;51175;51.186;0.276;2024-03-25T00:33:57;9.73;;;4.85;;
64738;SDS011;51175;51.186;0.276;2024-03-25T00:34:27;14.30;;;7.13;;
64738;SDS011;51175;51.186;0.276;2024-03-25T00:34:57;8.10;;;5.38;;
64738;SDS011;51175;51.186;0.276;2024-03-25T00:35:28;8.52;;;5.47;;
64738;SDS011;51175;51.186;0.276;2024-03-25T00:35:59;7.50;;;4.30;;
64738;SDS011;51175;51.186;0.276;2024-03-25T00:36:29;10.40;;;5.50;;
64738;SDS011;51175;51.186;0.276;2024-03-25T00:37:00;9.48;;;5.30;;
64738;SDS011;51175;51.186;0.276;2024-03-25T00:37:31;10.88;;;5.07;;
64738;SDS011;51175;51.186;0.276;2024-03-25T00:38:01;9.77;;;5.30;;
64738;SDS011;51175;51.186;0.276;2024-03-25T00:38:32;9.80;;;5.70;;
64738;SDS011;51175;51.186;0.276;2024-03-25T00:39:02;8.10;;;5.38;;
64738;SDS011;51175;51.186;0.276;2024-03-25T00:39:34;8.27;;;5.00;;
64738;SDS011;51175;51.186;0.276;2024-03-25T00:40:05;6.55;;;4.82;;
64738;SDS011;51175;51.186;0.276;2024-03-25T00:40:39;15.30;;;5.15;;
64738;SDS011;51175;51.186;0.276;2024-03-25T00:41:09;6.75;;;5.03;;
64738;SDS011;51175;51.186;0.276;2024-03-25T00:41:39;12.23;;;6.90;;
64738;SDS011;51175;51.186;0.276;2024-03-25T00:42:10;11.82;;;5.07;;
64738;SDS011;51175;51.186;0.276;2024-03-25T00:42:40;9.68;;;5.43;;
64738;SDS011;51175;51.186;0.276;2024-03-25T00:43:11;9.27;;;5.28;;
64738;SDS011;51175;51.186;0.276;2024-03-25T00:43:42;9.88;;;5.40;;
64738;SDS011;51175;51.186;0.276;2024-03-25T00:44:13;10.32;;;5.93;;
64738;SDS011;51175;51.186;0.276;2024-03-25T00:44:44;9.75;;;5.30;;
64738;SDS011;51175;51.186;0.276;2024-03-25T00:45:14;7.45;;;5.10;;
64738;SDS011;51175;51.186;0.276;2024-03-25T00:45:46;8.80;;;5.30;;
64738;SDS011;51175;51.186;0.276;2024-03-25T00:46:17;13.23;;;5.93;;
64738;SDS011;51175;51.186;0.276;2024-03-25T00:46:47;10.80;;;4.80;;
64738;SDS011;51175;51.186;0.276;2024-03-25T00:47:18;6.40;;;4.50;;
64738;SDS011;51175;51.186;0.276;2024-03-25T00:47:48;9.38;;;5.07;;
64738;SDS011;51175;51.186;0.276;2024-03-25T00:48:18;14.48;;;5.35;;
64738;SDS011;51175;51.186;0.276;2024-03-25T00:48:49;9.63;;;5.90;;
64738;SDS011;51175;51.186;0.276;2024-03-25T00:49:19;9.15;;;5.45;;
64738;SDS011;51175;51.186;0.276;2024-03-25T00:49:51;11.02;;;5.60;;
64738;SDS011;51175;51.186;0.276;2024-03-25T00:50:22;9.40;;;4.85;;
64738;SDS011;51175;51.186;0.276;2024-03-25T00:50:52;7.72;;;5.47;;
64738;SDS011;51175;51.186;0.276;2024-03-25T00:51:22;11.20;;;6.18;;
64738;SDS011;51175;51.186;0.276;2024-03-25T00:51:53;10.05;;;6.38;;
64738;SDS011;51175;51.186;0.276;2024-03-25T00:52:26;13.80;;;7.07;;
64738;SDS011;51175;51.186;0.276;2024-03-25T00:52:57;12.20;;;6.15;;
64738;SDS011;51175;51.186;0.276;2024-03-25T00:53:27;10.05;;;5.65;;
64738;SDS011;51175;51.186;0.276;2024-03-25T00:53:58;11.90;;;6.25;;
64738;SDS011;51175;51.186;0.276;2024-03-25T00:54:28;11.18;;;6.10;;
64738;SDS011;51175;51.186;0.276;2024-03-25T00:54:58;9.50;;;6.43;;
64738;SDS011;51175;51.186;0.276;2024-03-25T00:55:29;15.65;;;7.50;;
64738;SDS011;51175;51.186;0.276;2024-03-25T00:55:59;10.23;;;5.93;;
64738;SDS011;51175;51.186;0.276;2024-03-25T00:56:33;9.73;;;6.30;;
64738;SDS011;51175;51.186;0.276;2024-03-25T00:57:03;11.35;;;6.07;;
64738;SDS011;51175;51.186;0.276;2024-03-25T00:57:34;10.25;;;5.60;;
64738;SDS011;51175;51.186;0.276;2024-03-25T00:58:04;10.68;;;6.07;;
64738;SDS011;51175;51.186;0.276;2024-03-25T00:58:35;8.55;;;6.05;;
64738;SDS011;51175;51.186;0.276;2024-03-25T00:59:05;9.75;;;6.75;;
64738;SDS011;51175;51.186;0.276;2024-03-25T00:59:36;10.30;;;5.82;;
64738;SDS011;51175;51.186;0.276;2024-03-25T01:00:10;13.88;;;7.72;;
64738;SDS011;51175;51.186;0.276;2024-03-25T01:00:41;13.38;;;6.32;;
64738;SDS011;51175;51.186;0.276;2024-03-25T01:01:11;10.95;;;5.05;;
64738;SDS011;51175;51.186;0.276;2024-03-25T01:01:42;10.07;;;6.07;;
64738;SDS011;51175;51.186;0.276;2024-03-25T01:02:12;10.55;;;6.85;;
64738;SDS011;51175;51.186;0.276;2024-03-25T01:02:42;8.88;;;5.53;;
64738;SDS011;51175;51.186;0.276;2024-03-25T01:03:13;12.38;;;5.80;;
64738;SDS011;51175;51.186;0.276;2024-03-25T01:03:44;11.07;;;5.53;;
64738;SDS011;51175;51.186;0.276;2024-03-25T01:04:17;9.27;;;6.07;;
64738;SDS011;51175;51.186;0.276;2024-03-25T01:04:48;12.20;;;6.68;;
64738;SDS011;51175;51.186;0.276;2024-03-25T01:05:18;10.55;;;6.30;;
64738;SDS011;51175;51.186;0.276;2024-03-25T01:05:48;10.07;;;6.28;;
64738;SDS011;51175;51.186;0.276;2024-03-25T01:06:19;12.30;;;6.03;;
64738;SDS011;51175;51.186;0.276;2024-03-25T01:06:49;13.18;;;6.55;;
64738;SDS011;51175;51.186;0.276;2024-03-25T01:07:20;11.75;;;6.53;;
64738;SDS011;51175;51.186;0.276;2024-03-25T01:07:50;11.02;;;7.50;;
64738;SDS011;51175;51.186;0.276;2024-03-25T01:08:20;13.00;;;6.55;;
64738;SDS011;51175;51.186;0.276;2024-03-25T01:08:51;10.68;;;6.70;;
64738;SDS011;51175;51.186;0.276;2024-03-25T01:09:21;12.80;;;7.50;;
64738;SDS011;51175;51.186;0.276;2024-03-25T01:09:52;10.82;;;5.47;;
64738;SDS011;51175;51.186;0.276;2024-03-25T01:10:22;10.35;;;6.82;;
64738;SDS011;51175;51.186;0.276;2024-03-25T01:10:52;12.73;;;6.72;;
64738;SDS011;51175;51.186;0.276;2024-03-25T01:11:23;12.32;;;7.13;;
64738;SDS011;51175;51.186;0.276;2024-03-25T01:11:53;11.07;;;6.25;;
64738;SDS011;51175;51.186;0.276;2024-03-25T01:12:24;12.65;;;6.85;;
64738;SDS011;51175;51.186;0.276;2024-03-25T01:12:55;15.70;;;7.80;;
64738;SDS011;51175;51.186;0.276;2024-03-25T01:13:27;19.48;;;8.73;;
64738;SDS011;51175;51.186;0.276;2024-03-25T01:14:01;9.68;;;6.30;;
64738;SDS011;51175;51.186;0.276;2024-03-25T01:14:31;10.45;;;6.53;;
64738;SDS011;51175;51.186;0.276;2024-03-25T01:15:01;11.63;;;7.38;;
64738;SDS011;51175;51.186;0.276;2024-03-25T01:15:33;11.15;;;6.05;;
64738;SDS011;51175;51.186;0.276;2024-03-25T01:16:03;9.90;;;6.38;;
64738;SDS011;51175;51.186;0.276;2024-03-25T01:16:34;9.00;;;6.25;;
64738;SDS011;51175;51.186;0.276;2024-03-25T01:17:04;14.07;;;6.55;;
64738;SDS011;51175;51.186;0.276;2024-03-25T01:17:38;11.68;;;6.25;;
64738;SDS011;51175;51.186;0.276;2024-03-25T01:18:08;10.88;;;6.63;;
64738;SDS011;51175;51.186;0.276;2024-03-25T01:18:39;14.75;;;7.10;;
64738;SDS011;51175;51.186;0.276;2024-03-25T01:19:09;8.23;;;6.18;;
64738;SDS011;51175;51.186;0.276;2024-03-25T01:19:39;14.73;;;6.30;;
64738;SDS011;51175;51.186;0.276;2024-03-25T01:20:10;11.43;;;6.80;;
64738;SDS011;51175;51.186;0.276;2024-03-25T01:20:40;10.43;;;7.38;;
64738;SDS011;51175;51.186;0.276;2024-03-25T01:21:11;11.50;;;7.35;;
64738;SDS011;51175;51.186;0.276;2024-03-25T01:21:41;13.10;;;7.03;;
64738;SDS011;51175;51.186;0.276;2024-03-25T01:22:12;15.18;;;8.63;;
64738;SDS011;51175;51.186;0.276;2024-03-25T01:22:42;10.65;;;6.72;;
64738;SDS011;51175;51.186;0.276;2024-03-25T01:23:13;12.65;;;7.78;;
64738;SDS011;51175;51.186;0.276;2024-03-25T01:23:43;11.85;;;7.00;;
64738;SDS011;51175;51.186;0.276;2024-03-25T01:24:13;14.50;;;7.55;;
64738;SDS011;51175;51.186;0.276;2024-03-25T01:24:44;10.30;;;5.93;;
64738;SDS011;51175;51.186;0.276;2024-03-25T01:25:18;11.85;;;6.80;;
64738;SDS011;51175;51.186;0.276;2024-03-25T01:25:48;14.70;;;6.75;;
64738;SDS011;51175;51.186;0.276;2024-03-25T01:26:19;14.70;;;6.97;;
64738;SDS011;51175;51.186;0.276;2024-03-25T01:26:49;10.13;;;6.68;;
64738;SDS011;51175;51.186;0.276;2024-03-25T01:27:19;10.88;;;6.00;;
64738;SDS011;51175;51.186;0.276;2024-03-25T01:27:50;12.90;;;6.60;;
64738;SDS011;51175;51.186;0.276;2024-03-25T01:28:20;14.00;;;7.43;;
64738;SDS011;51175;51.186;0.276;2024-03-25T01:28:51;10.18;;;6.50;;
64738;SDS011;51175;51.186;0.276;2024-03-25T01:29:21;13.00;;;7.50;;
64738;SDS011;51175;51.186;0.276;2024-03-25T01:29:51;12.23;;;7.50;;
64738;SDS011;51175;51.186;0.276;2024-03-25T01:30:22;13.30;;;6.50;;
64738;SDS011;51175;51.186;0.276;2024-03-25T01:30:52;12.50;;;6.75;;
64738;SDS011;51175;51.186;0.276;2024-03-25T01:31:23;12.15;;;7.88;;
64738;SDS011;51175;51.186;0.276;2024-03-25T01:31:54;13.95;;;7.53;;
64738;SDS011;51175;51.186;0.276;2024-03-25T01:32:24;16.55;;;7.30;;
64738;SDS011;51175;51.186;0.276;2024-03-25T01:32:54;12.48;;;7.28;;
64738;SDS011;51175;51.186;0.276;2024-03-25T01:33:25;15.95;;;7.93;;
64738;SDS011;51175;51.186;0.276;2024-03-25T01:33:56;11.82;;;6.05;;
64738;SDS011;51175;51.186;0.276;2024-03-25T01:34:26;10.90;;;6.28;;
64738;SDS011;51175;51.186;0.276;2024-03-25T01:34:56;10.88;;;6.07;;
64738;SDS011;51175;51.186;0.276;2024-03-25T01:35:27;10.25;;;6.65;;
64738;SDS011;51175;51.186;0.276;2024-03-25T01:35:57;14.05;;;7.20;;
64738;SDS011;51175;51.186;0.276;2024-03-25T01:36:27;13.15;;;6.95;;
64738;SDS011;51175;51.186;0.276;2024-03-25T01:37:01;12.63;;;6.57;;
64738;SDS011;51175;51.186;0.276;2024-03-25T01:37:31;9.50;;;6.22;;
64738;SDS011;51175;51.186;0.276;2024-03-25T01:38:02;12.27;;;6.88;;
64738;SDS011;51175;51.186;0.276;2024-03-25T01:38:33;11.82;;;7.22;;
64738;SDS011;51175;51.186;0.276;2024-03-25T01:39:04;16.70;;;7.50;;
64738;SDS011;51175;51.186;0.276;2024-03-25T01:39:35;13.77;;;6.70;;
64738;SDS011;51175;51.186;0.276;2024-03-25T01:40:07;11.45;;;6.90;;
64738;SDS011;51175;51.186;0.276;2024-03-25T01:40:40;14.73;;;7.70;;
64738;SDS011;51175;51.186;0.276;2024-03-25T01:41:11;13.68;;;6.78;;
64738;SDS011;51175;51.186;0.276;2024-03-25T01:41:42;13.90;;;7.40;;
64738;SDS011;51175;51.186;0.276;2024-03-25T01:42:13;11.48;;;6.80;;
64738;SDS011;51175;51.186;0.276;2024-03-25T01:42:54;12.52;;;6.75;;
64738;SDS011;51175;51.186;0.276;2024-03-25T01:43:28;13.65;;;6.90;;
64738;SDS011;51175;51.186;0.276;2024-03-25T01:43:58;10.68;;;7.35;;
64738;SDS011;51175;51.186;0.276;2024-03-25T01:44:29;11.38;;;5.97;;
64738;SDS011;51175;51.186;0.276;2024-03-25T01:45:00;12.77;;;7.53;;
64738;SDS011;51175;51.186;0.276;2024-03-25T01:45:31;12.45;;;7.85;;
64738;SDS011;51175;51.186;0.276;2024-03-25T01:46:04;11.63;;;6.40;;
64738;SDS011;51175;51.186;0.276;2024-03-25T01:46:38;20.33;;;8.13;;
64738;SDS011;51175;51.186;0.276;2024-03-25T01:47:12;14.77;;;6.90;;
64738;SDS011;51175;51.186;0.276;2024-03-25T01:47:43;10.82;;;7.60;;
64738;SDS011;51175;51.186;0.276;2024-03-25T01:48:14;13.07;;;6.47;;
64738;SDS011;51175;51.186;0.276;2024-03-25T01:48:45;9.68;;;7.13;;
64738;SDS011;51175;51.186;0.276;2024-03-25T01:49:16;11.43;;;6.78;;
64738;SDS011;51175;51.186;0.276;2024-03-25T01:49:46;11.00;;;6.45;;
64738;SDS011;51175;51.186;0.276;2024-03-25T01:50:18;13.07;;;6.57;;
64738;SDS011;51175;51.186;0.276;2024-03-25T01:50:52;10.10;;;7.30;;
64738;SDS011;51175;51.186;0.276;2024-03-25T01:51:23;12.48;;;7.53;;
64738;SDS011;51175;51.186;0.276;2024-03-25T01:51:54;12.40;;;7.47;;
64738;SDS011;51175;51.186;0.276;2024-03-25T01:52:27;14.80;;;7.38;;
64738;SDS011;51175;51.186;0.276;2024-03-25T01:53:00;12.63;;;7.13;;
64738;SDS011;51175;51.186;0.276;2024-03-25T01:53:31;11.27;;;6.35;;
64738;SDS011;51175;51.186;0.276;2024-03-25T01:54:02;11.38;;;7.38;;
64738;SDS011;51175;51.186;0.276;2024-03-25T01:54:33;13.40;;;7.43;;
64738;SDS011;51175;51.186;0.276;2024-03-25T01:55:04;12.05;;;7.82;;
64738;SDS011;51175;51.186;0.276;2024-03-25T01:55:37;13.45;;;7.50;;
64738;SDS011;51175;51.186;0.276;2024-03-25T01:56:09;14.20;;;7.50;;
64738;SDS011;51175;51.186;0.276;2024-03-25T01:56:42;16.23;;;8.10;;
64738;SDS011;51175;51.186;0.276;2024-03-25T01:57:16;14.77;;;7.78;;
64738;SDS011;51175;51.186;0.276;2024-03-25T01:57:47;17.48;;;7.75;;
64738;SDS011;51175;51.186;0.276;2024-03-25T01:58:18;12.70;;;7.68;;
64738;SDS011;51175;51.186;0.276;2024-03-25T01:58:48;17.52;;;8.85;;
64738;SDS011;51175;51.186;0.276;2024-03-25T01:59:19;14.95;;;8.38;;
64738;SDS011;51175;51.186;0.276;2024-03-25T01:59:49;15.15;;;8.93;;
64738;SDS011;51175;51.186;0.276;2024-03-25T02:00:23;11.75;;;7.63;;
64738;SDS011;51175;51.186;0.276;2024-03-25T02:00:57;12.52;;;7.55;;
64738;SDS011;51175;51.186;0.276;2024-03-25T02:01:31;14.13;;;7.65;;
64738;SDS011;51175;51.186;0.276;2024-03-25T02:02:05;12.32;;;7.63;;
64738;SDS011;51175;51.186;0.276;2024-03-25T02:02:36;14.85;;;8.30;;
64738;SDS011;51175;51.186;0.276;2024-03-25T02:03:11;12.70;;;7.65;;
64738;SDS011;51175;51.186;0.276;2024-03-25T02:03:42;11.98;;;7.80;;
64738;SDS011;51175;51.186;0.276;2024-03-25T02:04:14;16.23;;;8.02;;
64738;SDS011;51175;51.186;0.276;2024-03-25T02:04:44;11.82;;;7.88;;
64738;SDS011;51175;51.186;0.276;2024-03-25T02:05:15;19.67;;;9.23;;
64738;SDS011;51175;51.186;0.276;2024-03-25T02:05:45;12.30;;;7.78;;
64738;SDS011;51175;51.186;0.276;2024-03-25T02:06:17;13.82;;;7.38;;
64738;SDS011;51175;51.186;0.276;2024-03-25T02:06:47;13.82;;;7.53;;
64738;SDS011;51175;51.186;0.276;2024-03-25T02:07:20;21.85;;;8.88;;
64738;SDS011;51175;51.186;0.276;2024-03-25T02:07:53;13.55;;;8.32;;
64738;SDS011;51175;51.186;0.276;2024-03-25T02:08:25;12.13;;;7.20;;
64738;SDS011;51175;51.186;0.276;2024-03-25T02:08:57;11.20;;;6.95;;
64738;SDS011;51175;51.186;0.276;2024-03-25T02:09:28;16.38;;;8.63;;
64738;SDS011;51175;51.186;0.276;2024-03-25T02:09:59;13.65;;;8.65;;
64738;SDS011;51175;51.186;0.276;2024-03-25T02:10:29;13.57;;;8.00;;
64738;SDS011;51175;51.186;0.276;2024-03-25T02:11:01;10.45;;;7.32;;
64738;SDS011;51175;51.186;0.276;2024-03-25T02:11:32;17.48;;;8.40;;
64738;SDS011;51175;51.186;0.276;2024-03-25T02:12:02;18.55;;;9.27;;
64738;SDS011;51175;51.186;0.276;2024-03-25T02:12:34;17.70;;;8.55;;
64738;SDS011;51175;51.186;0.276;2024-03-25T02:13:04;12.30;;;8.25;;
64738;SDS011;51175;51.186;0.276;2024-03-25T02:13:35;12.55;;;8.95;;
64738;SDS011;51175;51.186;0.276;2024-03-25T02:14:06;15.05;;;7.90;;
64738;SDS011;51175;51.186;0.276;2024-03-25T02:14:37;16.73;;;8.95;;
64738;SDS011;51175;51.186;0.276;2024-03-25T02:15:08;12.23;;;7.60;;
64738;SDS011;51175;51.186;0.276;2024-03-25T02:15:40;11.88;;;7.70;;
64738;SDS011;51175;51.186;0.276;2024-03-25T02:16:13;16.30;;;8.10;;
64738;SDS011;51175;51.186;0.276;2024-03-25T02:16:44;15.65;;;9.07;;
64738;SDS011;51175;51.186;0.276;2024-03-25T02:17:14;17.70;;;8.35;;
64738;SDS011;51175;51.186;0.276;2024-03-25T02:17:45;15.55;;;8.02;;
64738;SDS011;51175;51.186;0.276;2024-03-25T02:18:16;13.45;;;7.55;;
64738;SDS011;51175;51.186;0.276;2024-03-25T02:18:47;15.48;;;8.07;;
64738;SDS011;51175;51.186;0.276;2024-03-25T02:19:17;12.15;;;7.70;;
64738;SDS011;51175;51.186;0.276;2024-03-25T02:19:48;14.23;;;9.20;;
64738;SDS011;51175;51.186;0.276;2024-03-25T02:20:18;13.90;;;7.35;;
64738;SDS011;51175;51.186;0.276;2024-03-25T02:20:49;13.75;;;7.93;;
64738;SDS011;51175;51.186;0.276;2024-03-25T02:21:19;16.15;;;8.02;;
64738;SDS011;51175;51.186;0.276;2024-03-25T02:21:50;20.02;;;8.70;;
64738;SDS011;51175;51.186;0.276;2024-03-25T02:22:20;13.75;;;7.35;;
64738;SDS011;51175;51.186;0.276;2024-03-25T02:22:53;11.65;;;7.10;;
64738;SDS011;51175;51.186;0.276;2024-03-25T02:23:25;11.10;;;8.32;;
64738;SDS011;51175;51.186;0.276;2024-03-25T02:23:56;14.23;;;8.20;;
64738;SDS011;51175;51.186;0.276;2024-03-25T02:24:29;11.73;;;8.00;;
64738;SDS011;51175;51.186;0.276;2024-03-25T02:25:08;16.58;;;8.68;;
64738;SDS011;51175;51.186;0.276;2024-03-25T02:25:40;11.60;;;7.53;;
64738;SDS011;51175;51.186;0.276;2024-03-25T02:26:12;13.40;;;7.80;;
64738;SDS011;51175;51.186;0.276;2024-03-25T02:26:42;11.30;;;7.75;;
64738;SDS011;51175;51.186;0.276;2024-03-25T02:27:13;12.82;;;7.95;;
64738;SDS011;51175;51.186;0.276;2024-03-25T02:27:46;16.25;;;8.15;;
64738;SDS011;51175;51.186;0.276;2024-03-25T02:28:17;11.50;;;7.38;;
64738;SDS011;51175;51.186;0.276;2024-03-25T02:28:47;12.45;;;7.78;;
64738;SDS011;51175;51.186;0.276;2024-03-25T02:29:17;12.90;;;8.10;;
64738;SDS011;51175;51.186;0.276;2024-03-25T02:29:48;13.70;;;8.00;;
64738;SDS011;51175;51.186;0.276;2024-03-25T02:30:18;12.43;;;7.78;;
64738;SDS011;51175;51.186;0.276;2024-03-25T02:30:49;13.90;;;6.78;;
64738;SDS011;51175;51.186;0.276;2024-03-25T02:31:19;12.10;;;6.35;;
64738;SDS011;51175;51.186;0.276;2024-03-25T02:31:49;17.20;;;6.75;;
64738;SDS011;51175;51.186;0.276;2024-03-25T02:32:23;11.45;;;6.63;;
64738;SDS011;51175;51.186;0.276;2024-03-25T02:32:53;12.43;;;7.05;;
64738;SDS011;51175;51.186;0.276;2024-03-25T02:33:23;9.68;;;6.13;;
64738;SDS011;51175;51.186;0.276;2024-03-25T02:33:54;13.75;;;6.65;;
64738;SDS011;51175;51.186;0.276;2024-03-25T02:34:24;10.90;;;6.43;;
64738;SDS011;51175;51.186;0.276;2024-03-25T02:34:54;12.68;;;7.43;;
64738;SDS011;51175;51.186;0.276;2024-03-25T02:35:26;12.10;;;6.55;;
64738;SDS011;51175;51.186;0.276;2024-03-25T02:35:57;12.80;;;6.70;;
64738;SDS011;51175;51.186;0.276;2024-03-25T02:36:27;8.88;;;5.90;;
64738;SDS011;51175;51.186;0.276;2024-03-25T02:36:58;11.80;;;6.45;;
64738;SDS011;51175;51.186;0.276;2024-03-25T02:37:28;13.38;;;7.13;;
64738;SDS011;51175;51.186;0.276;2024-03-25T02:37:59;8.10;;;5.82;;
64738;SDS011;51175;51.186;0.276;2024-03-25T02:38:30;9.90;;;6.65;;
64738;SDS011;51175;51.186;0.276;2024-03-25T02:39:02;15.52;;;7.32;;
64738;SDS011;51175;51.186;0.276;2024-03-25T02:39:34;12.18;;;6.57;;
64738;SDS011;51175;51.186;0.276;2024-03-25T02:40:05;12.77;;;7.40;;
64738;SDS011;51175;51.186;0.276;2024-03-25T02:40:37;10.15;;;6.88;;
64738;SDS011;51175;51.186;0.276;2024-03-25T02:41:08;11.98;;;7.72;;
64738;SDS011;51175;51.186;0.276;2024-03-25T02:41:39;10.52;;;6.68;;
64738;SDS011;51175;51.186;0.276;2024-03-25T02:42:09;11.73;;;6.82;;
64738;SDS011;51175;51.186;0.276;2024-03-25T02:42:40;15.38;;;7.20;;
64738;SDS011;51175;51.186;0.276;2024-03-25T02:43:11;11.48;;;7.35;;
64738;SDS011;51175;51.186;0.276;2024-03-25T02:43:42;10.45;;;5.70;;
64738;SDS011;51175;51.186;0.276;2024-03-25T02:44:12;12.25;;;6.07;;
64738;SDS011;51175;51.186;0.276;2024-03-25T02:44:43;10.98;;;6.47;;
64738;SDS011;51175;51.186;0.276;2024-03-25T02:45:15;12.57;;;7.07;;
64738;SDS011;51175;51.186;0.276;2024-03-25T02:45:45;10.73;;;6.90;;
64738;SDS011;51175;51.186;0.276;2024-03-25T02:46:15;10.88;;;6.70;;
64738;SDS011;51175;51.186;0.276;2024-03-25T02:46:46;11.38;;;7.45;;
64738;SDS011;51175;51.186;0.276;2024-03-25T02:47:18;13.32;;;6.70;;
64738;SDS011;51175;51.186;0.276;2024-03-25T02:47:50;11.85;;;7.85;;
64738;SDS011;51175;51.186;0.276;2024-03-25T02:48:20;10.50;;;7.25;;
64738;SDS011;51175;51.186;0.276;2024-03-25T02:48:51;9.50;;;6.32;;
64738;SDS011;51175;51.186;0.276;2024-03-25T02:49:21;10.43;;;6.40;;
64738;SDS011;51175;51.186;0.276;2024-03-25T02:49:51;12.65;;;7.68;;
64738;SDS011;51175;51.186;0.276;2024-03-25T02:50:22;12.73;;;7.70;;
64738;SDS011;51175;51.186;0.276;2024-03-25T02:50:55;12.10;;;7.65;;
64738;SDS011;51175;51.186;0.276;2024-03-25T02:51:25;15.25;;;7.22;;
64738;SDS011;51175;51.186;0.276;2024-03-25T02:51:56;11.20;;;7.32;;
64738;SDS011;51175;51.186;0.276;2024-03-25T02:52:26;12.73;;;6.97;;
64738;SDS011;51175;51.186;0.276;2024-03-25T02:52:57;14.23;;;7.80;;
64738;SDS011;51175;51.186;0.276;2024-03-25T02:53:27;13.00;;;7.35;;
64738;SDS011;51175;51.186;0.276;2024-03-25T02:54:01;12.38;;;6.55;;
64738;SDS011;51175;51.186;0.276;2024-03-25T02:54:31;18.25;;;7.70;;
64738;SDS011;51175;51.186;0.276;2024-03-25T02:55:02;13.55;;;8.13;;
64738;SDS011;51175;51.186;0.276;2024-03-25T02:55:35;15.90;;;9.57;;
64738;SDS011;51175;51.186;0.276;2024-03-25T02:56:06;17.73;;;9.43;;
64738;SDS011;51175;51.186;0.276;2024-03-25T02:56:36;15.43;;;9.02;;
64738;SDS011;51175;51.186;0.276;2024-03-25T02:57:07;13.15;;;8.13;;
64738;SDS011;51175;51.186;0.276;2024-03-25T02:57:37;11.00;;;8.20;;
64738;SDS011;51175;51.186;0.276;2024-03-25T02:58:08;12.68;;;7.05;;
64738;SDS011;51175;51.186;0.276;2024-03-25T02:58:38;8.95;;;6.35;;
64738;SDS011;51175;51.186;0.276;2024-03-25T02:59:09;12.57;;;6.80;;
64738;SDS011;51175;51.186;0.276;2024-03-25T02:59:39;10.15;;;6.43;;
64738;SDS011;51175;51.186;0.276;2024-03-25T03:00:10;9.73;;;6.60;;
64738;SDS011;51175;51.186;0.276;2024-03-25T03:00:40;12.77;;;6.70;;
64738;SDS011;51175;51.186;0.276;2024-03-25T03:01:11;11.32;;;6.32;;
64738;SDS011;51175;51.186;0.276;2024-03-25T03:01:41;9.35;;;6.55;;
64738;SDS011;51175;51.186;0.276;2024-03-25T03:02:11;9.50;;;6.57;;
64738;SDS011;51175;51.186;0.276;2024-03-25T03:02:42;12.30;;;6.35;;
64738;SDS011;51175;51.186;0.276;2024-03-25T03:03:12;11.38;;;7.38;;
64738;SDS011;51175;51.186;0.276;2024-03-25T03:03:42;13.75;;;7.97;;
64738;SDS011;51175;51.186;0.276;2024-03-25T03:04:16;11.00;;;7.65;;
64738;SDS011;51175;51.186;0.276;2024-03-25T03:04:46;11.98;;;7.75;;
64738;SDS011;51175;51.186;0.276;2024-03-25T03:05:18;12.32;;;6.68;;